Time;durP1;ratioP1;P1;durP2;ratioP2;P2;SDS_P1;SDS_P2;PMS_P1;PMS_P2;Temp;Humidity;BMP_temperature;BMP_pressure;BME280_temperature;BME280_humidity;BME280_pressure;Samples;Min_cycle;Max_cycle;Signal;HPM_P1;HPM_P2
2021/11/04 00:01:03;;;;;;;21.15;15.45;;;;;;;6.23;68.28;99697.62;1735978;82;21118;-42
2021/11/04 00:03:31;;;;;;;18.30;15.03;;;;;;;6.23;68.34;99705.14;1762075;81;20965;-41
2021/11/04 00:05:58;;;;;;;19.80;15.60;;;;;;;6.30;68.35;99706.77;1746656;81;21053;-41
2021/11/04 00:08:26;;;;;;;19.30;15.75;;;;;;;6.35;68.40;99701.20;1735832;82;20989;-41
2021/11/04 00:12:52;;;;;;;19.80;15.78;;;;;;;6.44;68.47;99707.34;1829892;78;22483;-40
2021/11/04 00:15:20;;;;;;;22.40;16.17;;;;;;;6.34;68.66;99705.58;1802951;79;21516;-40
2021/11/04 00:17:48;;;;;;;23.45;16.65;;;;;;;6.37;68.64;99713.80;1802990;79;21125;-41
2021/11/04 00:20:16;;;;;;;24.37;17.02;;;;;;;6.37;68.56;99719.19;1803073;79;20994;-40
2021/11/04 00:22:44;;;;;;;21.87;16.23;;;;;;;6.36;68.48;99732.41;1803290;79;20962;-41
2021/11/04 00:25:11;;;;;;;21.75;15.50;;;;;;;6.36;68.45;99728.37;1803026;79;21018;-39
2021/11/04 00:27:38;;;;;;;22.37;15.90;;;;;;;6.40;68.31;99732.55;1803092;79;20915;-40
2021/11/04 00:30:07;;;;;;;23.42;16.55;;;;;;;6.45;68.19;99725.08;1802994;79;21854;-40
2021/11/04 00:32:34;;;;;;;22.23;16.20;;;;;;;6.48;68.21;99727.16;1803155;79;20955;-39
2021/11/04 00:35:01;;;;;;;21.85;16.52;;;;;;;6.49;68.08;99733.30;1803042;79;20959;-41
2021/11/04 00:37:28;;;;;;;21.02;16.87;;;;;;;6.49;68.01;99727.91;1802838;79;21023;-40
2021/11/04 00:39:54;;;;;;;22.50;17.37;;;;;;;6.49;68.01;99728.70;1802828;79;21509;-39
2021/11/04 00:42:21;;;;;;;21.55;17.17;;;;;;;6.49;67.92;99729.27;1803164;79;21184;-41
2021/11/04 00:44:48;;;;;;;21.75;16.93;;;;;;;6.45;67.89;99729.13;1802787;79;20955;-40
2021/11/04 00:47:14;;;;;;;21.90;16.85;;;;;;;6.45;67.98;99737.20;1802983;79;21006;-40
2021/11/04 00:49:41;;;;;;;20.90;16.32;;;;;;;6.51;67.90;99742.66;1802929;79;20939;-41
2021/11/04 00:52:08;;;;;;;22.65;16.85;;;;;;;6.56;67.87;99736.30;1802888;79;21019;-40
2021/11/04 00:54:34;;;;;;;23.18;17.12;;;;;;;6.58;67.87;99734.64;1803053;79;21114;-41
2021/11/04 00:57:01;;;;;;;22.75;16.60;;;;;;;6.59;67.81;99736.20;1803045;79;21528;-40
2021/11/04 00:59:28;;;;;;;22.82;17.57;;;;;;;6.58;67.82;99732.73;1803196;79;21022;-40
2021/11/04 01:01:55;;;;;;;21.77;17.67;;;;;;;6.58;67.81;99734.64;1796639;79;20941;-40
2021/11/04 01:04:22;;;;;;;22.87;16.85;;;;;;;6.57;67.81;99742.48;1771645;81;21535;-40
2021/11/04 01:06:49;;;;;;;21.35;16.37;;;;;;;6.58;67.74;99736.78;1771345;81;21121;-40
2021/11/04 01:09:16;;;;;;;21.90;16.48;;;;;;;6.63;67.57;99731.77;1765080;81;21009;-40
2021/11/04 01:11:43;;;;;;;21.30;16.40;;;;;;;6.65;67.40;99730.86;1773654;80;21068;-41
2021/11/04 01:14:10;;;;;;;23.10;16.50;;;;;;;6.64;67.47;99740.05;1777184;80;20980;-41
2021/11/04 01:16:38;;;;;;;22.85;16.95;;;;;;;6.64;67.57;99737.36;1777091;80;21037;-40
2021/11/04 01:19:06;;;;;;;23.32;18.25;;;;;;;6.65;67.53;99741.64;1776937;80;21972;-40
2021/11/04 01:21:33;;;;;;;24.25;17.98;;;;;;;6.65;67.48;99747.03;1776900;80;21495;-40
2021/11/04 01:24:01;;;;;;;22.07;17.23;;;;;;;6.61;67.46;99747.45;1776417;80;20942;-40
2021/11/04 01:26:28;;;;;;;23.62;17.32;;;;;;;6.61;67.59;99744.75;1776550;80;21084;-41
2021/11/04 01:28:55;;;;;;;20.00;15.55;;;;;;;6.66;67.64;99748.62;1776384;80;21045;-41
2021/11/04 01:31:21;;;;;;;23.75;17.77;;;;;;;6.69;67.61;99746.06;1776473;80;21110;-40
2021/11/04 01:33:48;;;;;;;21.73;17.15;;;;;;;6.70;67.68;99746.85;1776457;80;21518;-40
2021/11/04 01:36:14;;;;;;;26.27;18.05;;;;;;;6.69;67.75;99745.27;1776433;80;20992;-41
2021/11/04 01:38:41;;;;;;;24.35;17.48;;;;;;;6.69;67.85;99747.95;1776268;80;20993;-42
2021/11/04 01:41:07;;;;;;;22.75;18.10;;;;;;;6.71;67.79;99752.48;1776478;80;21088;-40
2021/11/04 01:43:36;;;;;;;22.50;16.65;;;;;;;6.69;67.88;99754.14;1776270;80;20957;-40
2021/11/04 01:46:03;;;;;;;21.87;16.97;;;;;;;6.71;67.85;99756.52;1776157;80;21013;-40
2021/11/04 01:48:29;;;;;;;24.60;18.52;;;;;;;6.77;67.79;99770.05;1776529;80;20981;-41
2021/11/04 01:50:58;;;;;;;24.07;18.45;;;;;;;6.84;67.74;99758.20;1776178;80;20961;-42
2021/11/04 01:53:24;;;;;;;25.27;19.37;;;;;;;6.83;67.79;99764.14;1776429;80;21071;-40
2021/11/04 01:55:52;;;;;;;26.93;20.55;;;;;;;6.86;67.83;99770.80;1776335;80;21266;-41
2021/11/04 01:58:20;;;;;;;27.20;18.55;;;;;;;6.86;67.77;99762.16;1776282;80;21582;-39
2021/11/04 02:00:47;;;;;;;30.43;20.25;;;;;;;6.86;67.72;99765.41;1776282;80;21551;-40
2021/11/04 02:03:22;;;;;;;26.85;18.70;;;;;;;6.85;67.71;99773.26;1800111;79;21180;-41
2021/11/04 02:06:15;;;;;;;25.68;18.20;;;;;;;6.86;67.71;99772.15;1808401;79;21503;-40
2021/11/04 02:09:03;;;;;;;27.77;18.48;;;;;;;6.89;67.71;99775.53;1808320;79;21132;-41
2021/11/04 02:11:50;;;;;;;31.48;19.52;;;;;;;6.90;67.83;99767.69;1808292;79;21833;-40
2021/11/04 02:14:28;;;;;;;30.17;20.45;;;;;;;6.90;67.92;99769.03;1742862;79;21632;-40
2021/11/04 02:16:55;;;;;;;31.27;21.25;;;;;;;6.91;68.03;99758.49;1808132;79;21000;-41
2021/11/04 02:19:39;;;;;;;30.62;21.02;;;;;;;6.90;68.06;99757.70;1808342;79;21029;-40
2021/11/04 02:22:10;;;;;;;28.17;19.55;;;;;;;6.90;68.14;99760.39;1808432;79;21134;-41
2021/11/04 02:24:44;;;;;;;25.62;18.77;;;;;;;6.94;68.06;99764.56;1808271;79;20921;-41
2021/11/04 02:27:12;;;;;;;29.92;19.73;;;;;;;7.00;68.01;99771.36;1808535;78;20986;-41
2021/11/04 02:29:39;;;;;;;30.50;21.17;;;;;;;7.04;68.03;99776.33;1808532;79;21020;-40
2021/11/04 02:32:08;;;;;;;30.02;21.17;;;;;;;7.07;68.07;99775.67;1808294;79;21018;-41
2021/11/04 02:34:38;;;;;;;33.08;21.82;;;;;;;7.11;68.05;99766.39;1808739;79;21954;-40
2021/11/04 02:37:05;;;;;;;30.20;21.12;;;;;;;7.11;67.97;99782.02;1808306;78;21000;-41
2021/11/04 02:39:33;;;;;;;32.58;21.15;;;;;;;7.09;68.04;99792.32;1780054;79;21029;-40
2021/11/04 02:42:00;;;;;;;28.85;20.68;;;;;;;7.08;68.11;99788.04;1808470;79;20941;-41
2021/11/04 02:44:26;;;;;;;26.07;19.32;;;;;;;7.10;68.15;99779.08;1808601;79;21903;-41
2021/11/04 02:46:55;;;;;;;28.47;19.92;;;;;;;7.16;68.09;99802.05;1779057;79;21156;-40
2021/11/04 02:49:26;;;;;;;31.02;21.10;;;;;;;7.22;68.05;99810.16;1808222;79;20956;-41
2021/11/04 02:51:54;;;;;;;31.48;21.00;;;;;;;7.24;68.20;99811.99;1808150;79;20965;-40
2021/11/04 02:54:20;;;;;;;32.88;22.70;;;;;;;7.26;68.29;99811.09;1808182;79;21574;-41
2021/11/04 02:56:52;;;;;;;29.52;21.80;;;;;;;7.28;68.29;99799.98;1808067;79;20980;-40
2021/11/04 02:59:21;;;;;;;32.90;22.35;;;;;;;7.30;68.27;99805.86;1808343;79;21192;-40
2021/11/04 03:01:51;;;;;;;33.13;20.75;;;;;;;7.29;68.24;99809.66;1808107;79;21650;-40
2021/11/04 03:04:19;;;;;;;26.40;20.77;;;;;;;7.32;68.22;99821.14;1808251;79;21008;-40
2021/11/04 03:06:46;;;;;;;30.48;21.82;;;;;;;7.39;68.09;99827.61;1808148;79;20945;-40
2021/11/04 03:09:16;;;;;;;34.60;22.82;;;;;;;7.46;68.05;99825.73;1808200;78;20988;-40
2021/11/04 03:11:43;;;;;;;30.62;22.40;;;;;;;7.48;68.06;99838.34;1806043;78;21075;-41
2021/11/04 03:14:09;;;;;;;31.17;22.32;;;;;;;7.49;68.10;99841.28;1791194;80;21524;-41
2021/11/04 03:16:40;;;;;;;30.95;22.70;;;;;;;7.51;68.02;99840.93;1791550;80;21068;-41
2021/11/04 03:19:09;;;;;;;31.77;22.93;;;;;;;7.51;68.03;99841.72;1791370;79;21069;-40
2021/11/04 03:21:41;;;;;;;30.55;20.40;;;;;;;7.52;68.06;99841.17;1791308;79;21508;-40
2021/11/04 03:24:08;;;;;;;32.00;20.45;;;;;;;7.53;68.09;99834.66;1791130;80;21131;-40
2021/11/04 03:26:38;;;;;;;23.65;20.17;;;;;;;7.58;68.08;99833.13;1791412;80;20955;-41
2021/11/04 03:29:05;;;;;;;32.08;21.00;;;;;;;7.62;68.05;99830.79;1791239;80;21019;-41
2021/11/04 03:31:33;;;;;;;31.73;22.20;;;;;;;7.64;68.06;99830.47;1791339;80;21505;-40
2021/11/04 03:33:59;;;;;;;29.77;21.77;;;;;;;7.33;68.05;99774.17;1769631;80;21037;-40
2021/11/04 03:36:26;;;;;;;30.43;22.50;;;;;;;7.67;68.01;99824.41;1791381;79;21134;-40
2021/11/04 03:38:53;;;;;;;29.80;22.15;;;;;;;7.66;68.04;99821.47;1791418;79;21515;-41
2021/11/04 03:41:20;;;;;;;31.70;22.20;;;;;;;7.65;68.03;99818.56;1791751;79;21009;-40
2021/11/04 03:43:46;;;;;;;29.77;21.37;;;;;;;7.66;67.94;99802.58;1791408;80;21563;-40
2021/11/04 03:46:13;;;;;;;30.15;21.62;;;;;;;7.68;67.93;99801.70;1791370;80;21014;-40
2021/11/04 03:48:41;;;;;;;31.02;21.82;;;;;;;7.73;67.84;99804.21;1791632;80;21122;-41
2021/11/04 03:51:09;;;;;;;28.27;21.20;;;;;;;7.71;67.86;99799.13;1791268;79;21024;-41
2021/11/04 03:53:37;;;;;;;28.90;21.95;;;;;;;7.69;67.92;99792.50;1791528;79;21500;-40
2021/11/04 03:56:04;;;;;;;36.05;23.70;;;;;;;7.67;67.91;99787.98;1791681;79;21496;-41
2021/11/04 03:58:31;;;;;;;33.85;23.77;;;;;;;7.65;67.98;99781.55;1791556;80;20991;-41
2021/11/04 04:00:59;;;;;;;32.73;22.42;;;;;;;7.62;68.02;99771.42;1791161;79;21129;-41
2021/11/04 04:03:25;;;;;;;30.15;21.52;;;;;;;7.62;67.97;99767.94;1791180;80;21041;-41
2021/11/04 04:06:03;;;;;;;32.55;21.27;;;;;;;7.63;68.01;99762.78;1791431;80;20922;-41
2021/11/04 04:08:32;;;;;;;28.35;22.42;;;;;;;7.66;68.04;99774.25;1791500;80;21527;-41
2021/11/04 04:10:59;;;;;;;29.27;21.73;;;;;;;7.64;68.17;99785.39;1791489;80;21544;-41
2021/11/04 04:13:26;;;;;;;31.52;22.07;;;;;;;7.66;68.20;99783.70;1790907;79;21122;-42
2021/11/04 04:15:53;;;;;;;29.40;22.73;;;;;;;7.67;68.23;99779.88;1799665;78;21468;-41
2021/11/04 04:18:20;;;;;;;33.00;23.77;;;;;;;7.65;68.24;99788.30;1799552;78;20953;-41
2021/11/04 04:20:47;;;;;;;31.48;22.30;;;;;;;7.63;68.34;99789.76;1799692;79;20950;-40
2021/11/04 04:23:14;;;;;;;29.98;21.82;;;;;;;7.66;68.44;99797.19;1799798;78;21546;-41
2021/11/04 04:25:41;;;;;;;32.42;22.60;;;;;;;7.70;68.48;99798.10;1799724;79;21527;-41
2021/11/04 04:28:08;;;;;;;31.97;22.20;;;;;;;7.73;68.58;99802.30;1799710;79;21074;-41
2021/11/04 04:30:35;;;;;;;31.27;23.12;;;;;;;7.73;68.69;99799.61;1799709;78;21209;-40
2021/11/04 04:33:01;;;;;;;30.20;23.18;;;;;;;7.73;68.84;99797.46;1799584;79;21555;-40
2021/11/04 04:35:28;;;;;;;31.60;23.55;;;;;;;7.74;68.94;99796.34;1799686;79;21017;-39
2021/11/04 04:37:55;;;;;;;32.85;22.17;;;;;;;7.74;69.07;99793.09;1799537;78;21143;-41
2021/11/04 04:40:21;;;;;;;27.32;21.87;;;;;;;7.79;68.93;99786.70;1793622;79;21523;-41
2021/11/04 04:42:48;;;;;;;31.25;21.87;;;;;;;7.85;68.89;99784.02;1799596;78;20969;-40
2021/11/04 04:45:18;;;;;;;32.00;22.50;;;;;;;7.90;68.88;99780.32;1799914;78;21041;-40
2021/11/04 04:47:44;;;;;;;30.77;21.80;;;;;;;7.89;68.88;99778.18;1799925;78;20993;-40
2021/11/04 04:50:12;;;;;;;30.88;22.73;;;;;;;7.88;68.90;99777.97;1793836;79;21473;-40
2021/11/04 04:52:41;;;;;;;29.40;22.95;;;;;;;7.88;68.95;99783.38;1799904;78;20969;-40
2021/11/04 04:55:08;;;;;;;32.90;24.87;;;;;;;7.87;68.90;99772.34;1799976;79;21061;-41
2021/11/04 04:57:35;;;;;;;28.65;21.90;;;;;;;7.87;68.77;99766.94;1799803;79;20957;-40
2021/11/04 05:00:11;;;;;;;28.45;21.30;;;;;;;7.83;68.75;99765.47;1799802;79;21045;-41
2021/11/04 05:02:34;;;;;;;30.72;22.82;;;;;;;7.82;68.71;99754.99;1793181;79;21531;-40
2021/11/04 05:05:01;;;;;;;27.22;21.57;;;;;;;7.78;68.72;99764.87;1799819;79;20886;-40
2021/11/04 05:07:27;;;;;;;29.85;22.65;;;;;;;7.72;68.99;99760.80;1799366;79;21088;-41
2021/11/04 05:09:54;;;;;;;33.15;22.93;;;;;;;7.72;69.02;99765.63;1799606;79;21017;-41
2021/11/04 05:12:20;;;;;;;35.20;25.10;;;;;;;7.70;68.99;99770.56;1799743;79;21033;-41
2021/11/04 05:14:47;;;;;;;31.70;23.60;;;;;;;7.66;69.07;99775.59;1799802;79;21797;-41
2021/11/04 05:17:15;;;;;;;29.55;22.32;;;;;;;7.64;69.10;99779.20;1799700;78;20989;-41
2021/11/04 05:19:42;;;;;;;32.15;22.40;;;;;;;7.62;69.17;99780.87;1799656;79;21079;-41
2021/11/04 05:22:08;;;;;;;30.70;22.85;;;;;;;7.66;69.19;99786.39;1799868;79;21032;-40
2021/11/04 05:24:35;;;;;;;31.30;23.75;;;;;;;7.68;69.13;99786.87;1799673;78;21060;-41
2021/11/04 05:27:05;;;;;;;34.88;24.80;;;;;;;7.68;69.20;99784.16;1799878;79;21093;-40
2021/11/04 05:29:33;;;;;;;33.48;24.30;;;;;;;7.68;69.24;99785.52;1799726;79;21006;-41
2021/11/04 05:32:01;;;;;;;31.57;24.12;;;;;;;7.68;69.22;99780.12;1799860;78;21273;-40
2021/11/04 05:34:27;;;;;;;32.48;23.30;;;;;;;7.66;69.21;99778.30;1799734;79;21025;-41
2021/11/04 05:36:54;;;;;;;29.18;22.45;;;;;;;7.67;69.23;99774.48;1799694;79;21546;-41
2021/11/04 05:39:21;;;;;;;28.10;21.75;;;;;;;7.70;69.23;99771.12;1799831;78;21193;-40
2021/11/04 05:41:48;;;;;;;31.33;23.22;;;;;;;7.73;69.34;99770.47;1799678;79;21017;-41
2021/11/04 05:44:14;;;;;;;30.45;22.80;;;;;;;7.73;69.41;99773.97;1793810;79;21021;-41
2021/11/04 05:46:41;;;;;;;30.43;22.87;;;;;;;7.73;69.46;99779.92;1799912;79;20975;-41
2021/11/04 05:49:07;;;;;;;31.60;23.25;;;;;;;7.72;69.60;99781.03;1799970;79;21026;-40
2021/11/04 05:51:34;;;;;;;29.42;22.02;;;;;;;7.71;69.75;99780.80;1799836;79;21546;-40
2021/11/04 05:54:00;;;;;;;29.10;21.62;;;;;;;7.69;69.95;99784.41;1799869;78;20950;-40
2021/11/04 05:56:27;;;;;;;30.43;23.35;;;;;;;7.73;70.04;99787.46;1799829;79;20965;-42
2021/11/04 05:58:54;;;;;;;31.68;23.47;;;;;;;7.79;70.06;99783.42;1799661;78;20954;-41
2021/11/04 06:01:21;;;;;;;31.82;23.40;;;;;;;7.81;70.24;99785.24;1799791;79;21088;-41
2021/11/04 06:03:48;;;;;;;31.77;23.85;;;;;;;7.84;70.30;99788.62;1799683;78;21816;-40
2021/11/04 06:06:15;;;;;;;31.12;24.15;;;;;;;7.84;70.33;99790.55;1799714;79;20980;-40
2021/11/04 06:08:42;;;;;;;29.05;22.50;;;;;;;7.84;70.35;99798.06;1799449;79;20954;-41
2021/11/04 06:11:08;;;;;;;29.90;22.90;;;;;;;7.88;70.42;99801.47;1799473;79;21555;-41
2021/11/04 06:13:35;;;;;;;30.82;22.80;;;;;;;7.95;70.33;99809.26;1787391;79;21090;-40
2021/11/04 06:16:02;;;;;;;29.45;23.67;;;;;;;8.04;70.25;99811.88;1774962;80;21054;-40
2021/11/04 06:18:30;;;;;;;32.90;25.08;;;;;;;8.07;70.32;99812.03;1788123;79;21519;-41
2021/11/04 06:20:56;;;;;;;33.55;24.90;;;;;;;8.11;70.28;99822.95;1791402;80;21004;-41
2021/11/04 06:23:23;;;;;;;43.65;26.48;;;;;;;8.11;70.37;99819.69;1791396;80;21012;-41
2021/11/04 06:25:49;;;;;;;40.10;24.52;;;;;;;8.13;70.45;99820.72;1791162;80;21077;-41
2021/11/04 06:28:17;;;;;;;37.75;23.62;;;;;;;8.14;70.60;99813.61;1791521;79;21122;-41
2021/11/04 06:30:43;;;;;;;32.65;24.12;;;;;;;8.24;70.68;99815.91;1791235;79;20965;-41
2021/11/04 06:33:10;;;;;;;35.05;26.27;;;;;;;8.34;70.87;99815.28;1791333;80;21274;-40
2021/11/04 06:35:36;;;;;;;32.60;24.72;;;;;;;8.40;71.11;99813.41;1791418;80;21037;-40
2021/11/04 06:38:03;;;;;;;37.23;25.90;;;;;;;8.44;71.37;99810.26;1791374;79;21509;-41
2021/11/04 06:40:30;;;;;;;33.45;24.87;;;;;;;8.47;71.77;99816.92;1791195;80;21148;-40
2021/11/04 06:42:57;;;;;;;34.00;24.98;;;;;;;8.53;72.10;99815.00;1791049;79;20895;-41
2021/11/04 06:45:25;;;;;;;32.90;25.48;;;;;;;8.63;72.52;99819.98;1791655;80;20957;-40
2021/11/04 06:47:53;;;;;;;33.90;25.30;;;;;;;8.70;72.93;99809.42;1791449;79;21029;-40
2021/11/04 06:50:23;;;;;;;35.55;26.85;;;;;;;8.75;73.36;99804.36;1791525;80;21025;-41
2021/11/04 06:52:56;;;;;;;33.90;25.62;;;;;;;8.80;73.69;99810.91;1791427;79;22318;-40
2021/11/04 06:55:27;;;;;;;30.52;23.40;;;;;;;8.86;73.92;99813.59;1786230;79;20975;-41
2021/11/04 06:57:59;;;;;;;33.20;25.08;;;;;;;8.99;73.96;99796.27;1791421;80;21000;-40
2021/11/04 07:00:26;;;;;;;35.10;26.15;;;;;;;9.12;73.95;99798.40;1785601;80;21001;-41
2021/11/04 07:02:53;;;;;;;33.85;26.82;;;;;;;9.16;74.15;99778.45;1791325;80;21476;-41
2021/11/04 07:05:20;;;;;;;32.73;25.88;;;;;;;9.22;74.31;99779.57;1791265;79;21131;-41
2021/11/04 07:07:53;;;;;;;29.67;23.77;;;;;;;9.29;74.38;99774.39;1791340;79;21493;-39
2021/11/04 07:10:23;;;;;;;33.25;25.30;;;;;;;9.37;74.35;99770.20;1791285;79;20950;-41
2021/11/04 07:12:50;;;;;;;32.50;24.75;;;;;;;9.45;74.46;99767.13;1791530;79;20942;-41
2021/11/04 07:15:19;;;;;;;33.67;25.32;;;;;;;9.47;74.69;99769.73;1799629;78;21048;-41
2021/11/04 07:17:47;;;;;;;28.73;23.32;;;;;;;9.50;74.96;99762.83;1799693;78;21121;-39
2021/11/04 07:20:16;;;;;;;30.65;23.85;;;;;;;9.58;75.07;99760.58;1799675;79;20961;-41
2021/11/04 07:22:52;;;;;;;33.65;25.25;;;;;;;9.75;74.93;99761.64;1799890;79;21044;-41
2021/11/04 07:25:23;;;;;;;31.27;24.65;;;;;;;9.87;74.93;99756.75;1799742;79;20918;-41
2021/11/04 07:28:07;;;;;;;34.83;26.20;;;;;;;9.96;75.00;99758.19;1731718;82;21010;-41
2021/11/04 07:30:34;;;;;;;29.85;23.83;;;;;;;10.05;75.00;99753.96;1762020;81;22024;-40
2021/11/04 07:33:04;;;;;;;28.90;23.10;;;;;;;10.15;74.95;99755.38;1742719;82;21071;-41
2021/11/04 07:35:37;;;;;;;29.95;23.62;;;;;;;10.26;74.68;99757.25;1742877;82;20957;-41
2021/11/04 07:38:07;;;;;;;32.90;24.75;;;;;;;10.36;74.56;99758.69;1742860;82;21010;-39
2021/11/04 07:40:34;;;;;;;30.60;24.65;;;;;;;10.36;74.54;99762.16;1742965;82;21096;-41
2021/11/04 07:43:00;;;;;;;29.27;23.15;;;;;;;10.38;74.54;99764.53;1742928;81;21124;-41
2021/11/04 07:45:29;;;;;;;27.85;22.02;;;;;;;10.40;74.51;99761.72;1737082;82;21069;-41
2021/11/04 07:47:56;;;;;;;26.82;22.48;;;;;;;10.51;74.34;99766.03;1743072;82;21092;-40
2021/11/04 07:50:26;;;;;;;31.75;25.05;;;;;;;10.62;74.19;99763.59;1743102;82;21057;-41
2021/11/04 07:52:53;;;;;;;29.05;23.40;;;;;;;10.66;73.99;99762.54;1743068;82;21093;-41
2021/11/04 07:55:20;;;;;;;25.62;21.40;;;;;;;10.67;73.99;99765.48;1743087;81;21120;-40
2021/11/04 07:57:47;;;;;;;28.50;21.82;;;;;;;10.71;73.93;99764.20;1742971;82;21580;-41
2021/11/04 08:00:17;;;;;;;26.77;21.37;;;;;;;10.78;73.76;99767.89;1742993;82;21356;-42
2021/11/04 08:02:44;;;;;;;28.55;22.55;;;;;;;10.86;73.62;99760.70;1742435;82;21037;-40
2021/11/04 08:05:13;;;;;;;29.30;23.65;;;;;;;10.89;73.65;99764.09;1743029;81;21089;-41
2021/11/04 08:07:40;;;;;;;29.15;23.20;;;;;;;10.92;73.69;99753.09;1742906;82;21830;-41
2021/11/04 08:10:11;;;;;;;26.62;21.23;;;;;;;10.97;73.67;99762.31;1742764;81;21551;-41
2021/11/04 08:12:38;;;;;;;30.30;22.25;;;;;;;11.04;73.59;99757.83;1742189;82;21114;-41
2021/11/04 08:15:08;;;;;;;27.32;22.58;;;;;;;11.15;73.50;99752.66;1745607;81;21547;-40
2021/11/04 08:17:35;;;;;;;29.37;24.00;;;;;;;11.22;73.28;99747.40;1746295;82;21376;-41
2021/11/04 08:20:04;;;;;;;29.85;21.23;;;;;;;11.27;73.31;99749.27;1746334;82;21832;-41
2021/11/04 08:22:32;;;;;;;23.65;20.10;;;;;;;11.37;73.00;99748.50;1746435;82;21013;-41
2021/11/04 08:25:04;;;;;;;27.85;21.52;;;;;;;11.47;72.71;99750.09;1746312;81;20969;-41
2021/11/04 08:27:32;;;;;;;;;;;;;;;11.59;72.51;99739.66;1748936;81;20934;-41
2021/11/04 08:29:59;;;;;;;29.95;22.48;;;;;;;11.70;72.23;99742.02;1746282;82;20426;-41
2021/11/04 08:32:26;;;;;;;25.75;19.82;;;;;;;11.71;72.54;99753.87;1746373;82;21120;-41
2021/11/04 08:34:52;;;;;;;26.65;21.02;;;;;;;11.88;72.21;99755.98;1746585;82;20969;-40
2021/11/04 08:37:20;;;;;;;24.52;20.92;;;;;;;12.12;71.45;99758.39;1746717;82;21575;-41
2021/11/04 08:39:47;;;;;;;24.63;21.23;;;;;;;12.28;71.17;99763.74;1746515;82;21535;-40
2021/11/04 08:42:15;;;;;;;23.50;19.10;;;;;;;12.38;70.54;99759.08;1746681;81;21010;-41
2021/11/04 08:44:42;;;;;;;27.73;20.65;;;;;;;12.44;69.96;99764.44;1746516;82;21174;-41
2021/11/04 08:47:10;;;;;;;23.40;19.82;;;;;;;12.51;69.66;99767.27;1746379;82;20942;-41
2021/11/04 08:49:37;;;;;;;34.58;21.37;;;;;;;12.63;69.49;99767.10;1746410;82;21041;-41
2021/11/04 08:52:05;;;;;;;27.48;21.27;;;;;;;12.76;69.32;99773.13;1746515;82;21028;-42
2021/11/04 08:54:32;;;;;;;24.10;20.62;;;;;;;12.84;68.55;99763.35;1746530;82;21100;-41
2021/11/04 08:57:00;;;;;;;27.35;21.17;;;;;;;12.92;68.33;99754.74;1740770;82;21144;-40
2021/11/04 08:59:26;;;;;;;24.30;20.32;;;;;;;13.00;68.19;99761.86;1746365;81;21072;-41
2021/11/04 09:01:54;;;;;;;23.90;19.30;;;;;;;13.07;68.17;99752.42;1746504;82;21028;-40
2021/11/04 09:04:21;;;;;;;26.85;20.45;;;;;;;13.18;68.04;99747.17;1746486;82;21080;-41
2021/11/04 09:06:51;;;;;;;24.27;20.82;;;;;;;13.32;67.83;99741.35;1746422;82;21025;-42
2021/11/04 09:09:16;;;;;;;29.50;22.00;;;;;;;13.43;67.52;99739.57;1746509;81;21132;-41
2021/11/04 09:11:43;;;;;;;27.85;22.70;;;;;;;13.55;67.32;99734.48;1746500;81;21028;-41
2021/11/04 09:14:10;;;;;;;30.02;24.30;;;;;;;13.75;67.47;99730.42;1744840;82;21028;-40
2021/11/04 09:16:40;;;;;;;28.80;23.38;;;;;;;14.05;66.57;99735.83;1740808;81;20938;-41
2021/11/04 09:19:07;;;;;;;31.20;24.27;;;;;;;14.34;66.17;99726.78;1740744;82;21025;-40
2021/11/04 09:21:33;;;;;;;29.77;24.67;;;;;;;14.63;65.37;99733.87;1740812;82;21116;-41
2021/11/04 09:24:04;;;;;;;31.45;25.40;;;;;;;14.92;64.63;99722.61;1740534;81;21033;-41
2021/11/04 09:26:37;;;;;;;30.57;24.82;;;;;;;15.18;63.60;99725.92;1740548;82;21013;-42
2021/11/04 09:29:04;;;;;;;29.72;26.02;;;;;;;15.40;62.43;99728.75;1740704;82;21507;-42
2021/11/04 09:31:33;;;;;;;31.23;25.30;;;;;;;15.53;61.35;99722.62;1740653;81;20998;-42
2021/11/04 09:34:01;;;;;;;30.62;23.60;;;;;;;15.64;61.42;99717.19;1740693;82;21488;-41
2021/11/04 09:36:29;;;;;;;29.15;22.32;;;;;;;15.70;61.04;99710.77;1740718;82;21572;-42
2021/11/04 09:38:59;;;;;;;28.80;23.00;;;;;;;15.77;60.37;99705.34;1740680;81;21033;-42
2021/11/04 09:41:28;;;;;;;30.57;24.40;;;;;;;15.77;60.15;99710.23;1740610;82;22118;-41
2021/11/04 09:43:57;;;;;;;29.82;24.10;;;;;;;15.69;60.19;99712.72;1740098;82;21535;-42
2021/11/04 09:46:24;;;;;;;29.25;24.57;;;;;;;15.54;60.09;99706.41;1740593;82;21156;-42
2021/11/04 09:48:53;;;;;;;26.45;22.90;;;;;;;15.36;60.86;99708.25;1740571;81;21013;-42
2021/11/04 09:51:21;;;;;;;31.00;24.65;;;;;;;15.26;60.89;99713.07;1740688;82;20974;-40
2021/11/04 09:53:49;;;;;;;33.63;26.68;;;;;;;15.13;61.50;99702.27;1740368;82;21251;-42
2021/11/04 09:56:16;;;;;;;29.80;23.77;;;;;;;13.80;61.84;99539.92;1740852;81;21064;-41
2021/11/04 09:58:43;;;;;;;29.02;24.40;;;;;;;14.84;62.57;99717.69;1740855;82;21512;-41
2021/11/04 10:01:25;;;;;;;30.48;25.75;;;;;;;14.79;62.97;99700.30;1740781;82;21073;-42
2021/11/04 10:03:57;;;;;;;32.73;26.15;;;;;;;14.77;63.34;99693.05;1740708;82;21021;-42
2021/11/04 10:06:33;;;;;;;38.45;27.35;;;;;;;14.73;63.64;99692.25;1740773;82;21485;-42
2021/11/04 10:09:05;;;;;;;34.53;27.75;;;;;;;14.71;63.67;99690.50;1740747;82;21006;-41
2021/11/04 10:11:38;;;;;;;33.35;26.12;;;;;;;14.70;63.72;99691.66;1740639;82;21126;-41
2021/11/04 10:14:10;;;;;;;32.00;26.70;;;;;;;14.70;63.63;99687.56;1739499;82;21674;-41
2021/11/04 10:16:37;;;;;;;35.40;27.62;;;;;;;14.69;63.83;99690.87;1732536;82;20946;-42
2021/11/04 10:19:08;;;;;;;34.75;26.30;;;;;;;14.70;63.72;99686.20;1732362;82;21089;-41
2021/11/04 10:21:37;;;;;;;34.83;28.75;;;;;;;14.64;63.98;99674.06;1732481;82;21068;-42
2021/11/04 10:24:07;;;;;;;38.78;28.83;;;;;;;14.57;63.86;99664.47;1732254;82;21823;-42
2021/11/04 10:26:39;;;;;;;31.45;25.90;;;;;;;14.49;64.29;99664.98;1732494;82;21622;-42
2021/11/04 10:29:09;;;;;;;29.95;25.48;;;;;;;14.42;64.67;99657.33;1732691;82;21041;-42
2021/11/04 10:31:43;;;;;;;32.05;27.48;;;;;;;14.40;64.85;99651.45;1732106;82;20977;-42
2021/11/04 10:34:26;;;;;;;32.55;26.70;;;;;;;14.37;64.92;99673.47;1732405;82;21033;-41
2021/11/04 10:36:53;;;;;;;32.93;25.68;;;;;;;14.26;65.11;99663.80;1711546;82;21795;-41
2021/11/04 10:39:28;;;;;;;33.30;26.90;;;;;;;14.20;65.40;99663.14;1732277;82;20966;-41
2021/11/04 10:41:56;;;;;;;30.52;25.02;;;;;;;14.17;65.70;99660.59;1732440;82;21543;-42
2021/11/04 10:44:23;;;;;;;29.95;24.80;;;;;;;14.17;65.71;99651.05;1732743;82;20950;-42
2021/11/04 10:46:53;;;;;;;29.67;24.70;;;;;;;14.28;65.78;99637.52;1732328;82;21010;-42
2021/11/04 10:49:23;;;;;;;35.13;25.90;;;;;;;14.42;65.61;99631.42;1734262;82;21128;-41
2021/11/04 10:52:01;;;;;;;30.50;24.57;;;;;;;14.56;65.36;99639.12;1732349;82;22233;-41
2021/11/04 10:54:47;;;;;;;34.50;24.57;;;;;;;14.68;64.80;99628.47;1726814;81;21050;-42
2021/11/04 10:57:16;;;;;;;33.10;25.17;;;;;;;14.70;64.61;99639.23;1732334;81;21049;-41
2021/11/04 10:59:47;;;;;;;28.80;23.67;;;;;;;14.70;64.29;99646.05;1729887;82;21073;-42
2021/11/04 11:02:17;;;;;;;28.62;24.20;;;;;;;14.74;64.33;99634.56;1722770;82;21066;-41
2021/11/04 11:04:44;;;;;;;28.70;24.20;;;;;;;14.90;64.18;99631.55;1703424;84;28698;-41
2021/11/04 11:07:11;;;;;;;25.97;23.05;;;;;;;15.09;63.81;99639.45;1703514;84;20979;-42
2021/11/04 11:09:38;;;;;;;28.35;23.55;;;;;;;15.36;63.29;99622.78;1703344;84;21014;-43
2021/11/04 11:12:07;;;;;;;29.35;23.85;;;;;;;15.65;62.46;99632.66;1681209;84;21089;-41
2021/11/04 11:14:37;;;;;;;;;;;;;;;15.92;61.92;99621.61;1708459;83;21079;-42
2021/11/04 11:17:08;;;;;;;29.07;23.20;;;;;;;16.21;61.21;99615.58;1716983;83;20172;-42
2021/11/04 11:19:45;;;;;;;26.20;22.00;;;;;;;16.30;59.86;99616.55;1727915;81;21020;-41
2021/11/04 11:22:15;;;;;;;26.62;22.80;;;;;;;16.39;60.08;99626.50;1733183;82;20916;-42
2021/11/04 11:24:43;;;;;;;31.55;23.92;;;;;;;16.33;59.39;99628.06;1733099;82;21011;-41
2021/11/04 11:27:14;;;;;;;27.22;22.17;;;;;;;16.20;59.70;99626.31;1728539;82;21667;-40
2021/11/04 11:29:44;;;;;;;23.07;20.02;;;;;;;16.05;59.92;99615.16;1738538;82;21180;-39